createdAt,value
2022-09-28T00:00:47.829Z,9.90
2022-09-28T00:01:47.910Z,9.90
2022-09-28T00:02:47.863Z,11.20
2022-09-28T00:03:47.771Z,11.30
2022-09-28T00:04:47.770Z,9.60
2022-09-28T00:05:47.756Z,11.70
2022-09-28T00:06:47.767Z,9.90
2022-09-28T00:07:47.749Z,10.00
2022-09-28T00:08:47.752Z,11.00
2022-09-28T00:09:47.722Z,9.90
2022-09-28T00:10:47.729Z,10.50
2022-09-28T00:11:47.712Z,10.50
2022-09-28T00:12:47.738Z,9.30
2022-09-28T00:13:47.697Z,10.60
2022-09-28T00:14:47.693Z,12.30
2022-09-28T00:15:47.715Z,12.30
2022-09-28T00:16:47.738Z,10.40
2022-09-28T00:17:47.694Z,10.90
2022-09-28T00:18:47.671Z,10.30
2022-09-28T00:19:47.678Z,9.90
2022-09-28T00:20:47.660Z,10.60
2022-09-28T00:21:47.669Z,10.10
2022-09-28T00:22:47.644Z,8.40
2022-09-28T00:23:47.635Z,9.80
2022-09-28T00:24:47.630Z,9.00
2022-09-28T00:25:47.611Z,10.80
2022-09-28T00:26:47.645Z,9.30
2022-09-28T00:27:47.609Z,11.70
2022-09-28T00:28:47.607Z,11.20
2022-09-28T00:29:47.594Z,9.00
2022-09-28T00:30:47.610Z,9.70
2022-09-28T00:31:47.654Z,11.70
2022-09-28T00:32:47.575Z,9.40
2022-09-28T00:33:47.565Z,11.50
2022-09-28T00:34:47.564Z,11.90
2022-09-28T00:35:47.556Z,10.20
2022-09-28T00:36:47.568Z,10.70
2022-09-28T00:37:47.535Z,11.00
2022-09-28T00:38:47.536Z,13.40
2022-09-28T00:39:47.536Z,9.70
2022-09-28T00:40:47.585Z,11.80
2022-09-28T00:41:47.516Z,10.90
2022-09-28T00:42:47.526Z,10.70
2022-09-28T00:43:47.492Z,10.90
2022-09-28T00:44:47.508Z,13.70
2022-09-28T00:45:47.517Z,10.50
2022-09-28T00:46:47.480Z,12.60
2022-09-28T00:47:47.468Z,11.40
2022-09-28T00:48:47.484Z,10.10
2022-09-28T00:49:47.457Z,11.10
2022-09-28T00:50:47.487Z,9.30
2022-09-28T00:51:47.456Z,10.50
2022-09-28T00:52:47.441Z,11.00
2022-09-28T00:53:47.436Z,11.30
2022-09-28T00:54:47.423Z,10.90
2022-09-28T00:55:47.419Z,10.90
2022-09-28T00:56:47.428Z,10.50
2022-09-28T00:57:47.408Z,12.00
2022-09-28T00:58:47.400Z,11.60
2022-09-28T00:59:47.395Z,10.70
2022-09-28T01:00:47.456Z,12.20
2022-09-28T01:01:47.419Z,10.50
2022-09-28T01:02:47.393Z,10.60
2022-09-28T01:03:47.374Z,10.50
2022-09-28T01:04:47.361Z,12.30
2022-09-28T01:05:47.366Z,9.70
2022-09-28T01:06:47.355Z,10.00
2022-09-28T01:07:47.375Z,11.20
2022-09-28T01:08:47.352Z,11.00
2022-09-28T01:09:47.336Z,10.40
2022-09-28T01:10:47.329Z,10.60
2022-09-28T01:11:47.347Z,9.30
2022-09-28T01:12:47.312Z,10.30
2022-09-28T01:13:47.320Z,11.00
2022-09-28T01:14:47.302Z,11.50
2022-09-28T01:15:47.289Z,12.00
2022-09-28T01:16:47.341Z,9.00
2022-09-28T01:17:47.293Z,9.90
2022-09-28T01:18:47.281Z,9.00
2022-09-28T01:19:47.266Z,9.10
2022-09-28T01:20:47.286Z,11.10
2022-09-28T01:21:47.264Z,10.00
2022-09-28T01:22:47.257Z,10.20
2022-09-28T01:23:47.244Z,11.20
2022-09-28T01:24:47.241Z,10.60
2022-09-28T01:25:47.250Z,8.40
2022-09-28T01:26:47.231Z,7.80
2022-09-28T01:27:47.209Z,10.10
2022-09-28T01:28:47.213Z,9.00
2022-09-28T01:29:47.210Z,10.40
2022-09-28T01:30:47.192Z,9.20
2022-09-28T01:31:47.236Z,10.90
2022-09-28T01:32:47.177Z,10.90
2022-09-28T01:33:47.174Z,8.30
2022-09-28T01:34:47.207Z,11.10
2022-09-28T01:35:47.153Z,10.20
2022-09-28T01:36:47.156Z,11.10
2022-09-28T01:37:47.145Z,9.50
2022-09-28T01:38:47.135Z,10.90
2022-09-28T01:39:47.127Z,9.60
2022-09-28T01:40:47.192Z,10.90
2022-09-28T01:41:47.113Z,7.80
2022-09-28T01:42:47.109Z,8.50
2022-09-28T01:43:47.101Z,8.40
2022-09-28T01:44:47.097Z,10.90
2022-09-28T01:45:47.137Z,11.70
2022-09-28T01:46:47.095Z,8.30
2022-09-28T01:47:47.075Z,8.00
2022-09-28T01:48:47.067Z,10.70
2022-09-28T01:49:47.057Z,11.50
2022-09-28T01:50:47.065Z,9.80
2022-09-28T01:51:47.037Z,9.40
2022-09-28T01:52:47.067Z,9.30
2022-09-28T01:53:47.032Z,9.70
2022-09-28T01:54:47.018Z,9.20
2022-09-28T01:55:47.017Z,10.40
2022-09-28T01:56:47.007Z,9.60
2022-09-28T01:57:46.998Z,12.30
2022-09-28T01:58:47.024Z,9.60
2022-09-28T01:59:46.985Z,9.10
2022-09-28T02:00:47.041Z,7.50
2022-09-28T02:01:47.067Z,7.10
2022-09-28T02:02:46.970Z,11.80
2022-09-28T02:03:46.965Z,8.60
2022-09-28T02:04:46.980Z,8.00
2022-09-28T02:05:46.961Z,8.10
2022-09-28T02:06:46.938Z,9.50
2022-09-28T02:07:46.930Z,8.20
2022-09-28T02:08:46.946Z,8.00
2022-09-28T02:09:46.939Z,8.40
2022-09-28T02:10:46.925Z,9.40
2022-09-28T02:11:46.911Z,8.80
2022-09-28T02:12:46.896Z,9.10
2022-09-28T02:13:46.891Z,12.00
2022-09-28T02:14:46.908Z,9.90
2022-09-28T02:15:46.890Z,11.30
2022-09-28T02:16:46.916Z,8.20
2022-09-28T02:17:46.868Z,8.50
2022-09-28T02:18:46.861Z,9.90
2022-09-28T02:19:46.849Z,8.70
2022-09-28T02:20:46.854Z,9.60
2022-09-28T02:21:46.854Z,10.70
2022-09-28T02:22:46.835Z,7.80
2022-09-28T02:23:46.813Z,9.60
2022-09-28T02:24:46.836Z,7.70
2022-09-28T02:25:46.801Z,8.50
2022-09-28T02:26:46.804Z,9.20
2022-09-28T02:27:46.784Z,8.90
2022-09-28T02:28:46.791Z,9.20
2022-09-28T02:29:46.781Z,7.40
2022-09-28T02:30:46.797Z,9.20
2022-09-28T02:31:46.810Z,9.60
2022-09-28T02:32:46.764Z,8.30
2022-09-28T02:33:46.743Z,9.00
2022-09-28T02:34:46.743Z,11.10
2022-09-28T02:35:46.732Z,7.70
2022-09-28T02:36:46.751Z,8.50
2022-09-28T02:37:46.725Z,10.40
2022-09-28T02:38:46.723Z,9.20
2022-09-28T02:39:46.707Z,8.70
2022-09-28T02:40:46.765Z,9.70
2022-09-28T02:41:46.688Z,8.00
2022-09-28T02:42:46.708Z,9.70
2022-09-28T02:43:46.680Z,8.20
2022-09-28T02:44:46.671Z,8.60
2022-09-28T02:45:46.690Z,7.60
2022-09-28T02:46:46.652Z,8.60
2022-09-28T02:47:46.670Z,8.00
2022-09-28T02:48:55.710Z,7.00
2022-09-28T02:49:47.635Z,8.70
2022-09-28T02:50:46.654Z,12.10
2022-09-28T02:51:46.622Z,10.50
2022-09-28T02:52:46.622Z,8.30
2022-09-28T02:53:46.616Z,7.30
2022-09-28T02:54:46.631Z,7.30
2022-09-28T02:55:46.601Z,9.70
2022-09-28T02:56:46.590Z,7.20
2022-09-28T02:57:46.578Z,8.50
2022-09-28T02:58:46.584Z,10.50
2022-09-28T02:59:46.579Z,9.70
2022-09-28T03:00:46.635Z,10.00
2022-09-28T03:01:46.601Z,10.40
2022-09-28T03:02:46.584Z,10.20
2022-09-28T03:03:46.552Z,10.50
2022-09-28T03:04:46.543Z,8.70
2022-09-28T03:05:46.531Z,9.70
2022-09-28T03:06:46.520Z,9.10
2022-09-28T03:07:46.525Z,8.00
2022-09-28T03:08:46.540Z,8.30
2022-09-28T03:09:46.501Z,8.90
2022-09-28T03:10:46.501Z,9.30
2022-09-28T03:11:46.491Z,7.70
2022-09-28T03:12:46.483Z,8.70
2022-09-28T03:13:46.471Z,7.20
2022-09-28T03:14:46.483Z,7.70
2022-09-28T03:15:48.781Z,8.00
2022-09-28T03:16:46.554Z,8.60
2022-09-28T03:17:46.447Z,10.20
2022-09-28T03:18:46.450Z,10.70
2022-09-28T03:19:46.435Z,8.30
2022-09-28T03:20:46.436Z,7.30
2022-09-28T03:21:46.428Z,6.80
2022-09-28T03:23:00.288Z,7.60
2022-09-28T03:23:47.421Z,6.80
2022-09-28T03:24:46.411Z,8.40
2022-09-28T03:25:46.401Z,6.30
2022-09-28T03:26:46.423Z,8.90
2022-09-28T03:27:46.381Z,7.00
2022-09-28T03:28:46.410Z,8.30
2022-09-28T03:29:46.364Z,7.30
2022-09-28T03:30:46.365Z,7.40
2022-09-28T03:31:46.421Z,6.50
2022-09-28T03:32:46.360Z,6.00
2022-09-28T03:33:46.370Z,7.80
2022-09-28T03:34:46.341Z,6.70
2022-09-28T03:35:46.327Z,8.90
2022-09-28T03:36:46.322Z,7.40
2022-09-28T03:37:46.304Z,8.30
2022-09-28T03:38:46.330Z,7.90
2022-09-28T03:39:46.300Z,7.00
2022-09-28T03:40:46.334Z,7.40
2022-09-28T03:41:46.297Z,9.10
2022-09-28T03:42:46.285Z,8.00
2022-09-28T03:43:46.301Z,8.80
2022-09-28T03:44:46.263Z,9.00
2022-09-28T03:45:46.312Z,9.40
2022-09-28T03:46:46.255Z,7.80
2022-09-28T03:47:46.240Z,8.60
2022-09-28T03:48:46.236Z,6.10
2022-09-28T03:49:46.258Z,7.30
2022-09-28T03:50:46.227Z,6.80
2022-09-28T03:51:46.228Z,7.10
2022-09-28T03:52:46.209Z,5.90
2022-09-28T03:53:46.226Z,7.90
2022-09-28T03:54:49.271Z,8.20
2022-09-28T03:55:46.187Z,6.00
2022-09-28T03:56:46.191Z,5.90
2022-09-28T03:57:46.186Z,6.60
2022-09-28T03:58:46.182Z,7.80
2022-09-28T03:59:46.187Z,8.80
2022-09-28T04:00:46.201Z,8.50
2022-09-28T04:01:46.189Z,7.90
2022-09-28T04:02:46.160Z,6.80
2022-09-28T04:03:46.142Z,8.40
2022-09-28T04:04:46.158Z,8.70
2022-09-28T04:05:46.125Z,7.30
2022-09-28T04:06:46.125Z,6.10
2022-09-28T04:07:46.119Z,6.90
2022-09-28T04:08:46.115Z,6.40
2022-09-28T04:09:46.099Z,6.10
2022-09-28T04:10:46.125Z,6.60
2022-09-28T04:12:02.875Z,7.20
2022-09-28T04:12:47.091Z,7.50
2022-09-28T04:13:46.077Z,6.80
2022-09-28T04:14:46.080Z,5.30
2022-09-28T04:15:46.065Z,6.60
2022-09-28T04:16:46.132Z,6.50
2022-09-28T04:17:46.049Z,5.90
2022-09-28T04:18:46.043Z,5.30
2022-09-28T04:19:46.035Z,6.10
2022-09-28T04:20:46.040Z,5.90
2022-09-28T04:21:46.048Z,7.00
2022-09-28T04:22:46.017Z,10.50
2022-09-28T04:23:46.010Z,7.90
2022-09-28T04:24:46.033Z,8.10
2022-09-28T04:25:46.005Z,7.60
2022-09-28T04:26:46.004Z,9.40
2022-09-28T04:27:45.994Z,7.30
2022-09-28T04:28:45.980Z,7.50
2022-09-28T04:29:45.971Z,8.90
2022-09-28T04:30:45.993Z,6.60
2022-09-28T04:31:46.039Z,6.70
2022-09-28T04:32:45.962Z,5.20
2022-09-28T04:33:45.969Z,4.80
2022-09-28T04:34:45.946Z,4.80
2022-09-28T04:35:45.950Z,4.30
2022-09-28T04:36:45.952Z,3.50
2022-09-28T04:37:45.922Z,3.40
2022-09-28T04:38:53.183Z,4.80
2022-09-28T04:39:48.597Z,5.50
2022-09-28T04:40:45.972Z,5.80
2022-09-28T04:41:45.901Z,4.20
2022-09-28T04:42:45.903Z,4.70
2022-09-28T04:43:45.885Z,5.40
2022-09-28T04:44:45.881Z,4.10
2022-09-28T04:45:45.913Z,4.10
2022-09-28T04:46:45.892Z,4.30
2022-09-28T04:47:45.883Z,3.40
2022-09-28T04:48:45.864Z,3.40
2022-09-28T04:49:45.851Z,4.40
2022-09-28T04:50:45.843Z,5.00
2022-09-28T04:51:45.839Z,3.40
2022-09-28T04:52:45.820Z,4.20
2022-09-28T04:53:45.855Z,3.10
2022-09-28T04:54:45.817Z,3.20
2022-09-28T04:55:45.811Z,4.90
2022-09-28T04:56:45.801Z,5.90
2022-09-28T04:57:45.787Z,4.70
2022-09-28T04:58:50.287Z,4.00
2022-09-28T04:59:46.798Z,3.60
2022-09-28T05:00:45.819Z,4.20
2022-09-28T05:01:45.758Z,4.00
2022-09-28T05:02:45.764Z,4.70
2022-09-28T05:03:45.768Z,4.50
2022-09-28T05:04:45.781Z,6.00
2022-09-28T05:05:45.739Z,4.00
2022-09-28T05:06:45.755Z,6.40
2022-09-28T05:07:45.729Z,5.10
2022-09-28T05:08:45.783Z,4.40
2022-09-28T05:09:45.713Z,4.00
2022-09-28T05:10:45.705Z,5.40
2022-09-28T05:11:45.690Z,4.40
2022-09-28T05:12:45.698Z,5.00
2022-09-28T05:13:45.718Z,5.60
2022-09-28T05:14:45.700Z,4.80
2022-09-28T05:15:45.676Z,5.30
2022-09-28T05:16:45.734Z,5.00
2022-09-28T05:17:45.670Z,4.90
2022-09-28T05:18:45.684Z,5.20
2022-09-28T05:19:45.646Z,5.80
2022-09-28T05:20:45.652Z,6.00
2022-09-28T05:21:45.676Z,5.30
2022-09-28T05:22:45.628Z,4.10
2022-09-28T05:23:45.622Z,7.40
2022-09-28T05:24:45.634Z,7.00
2022-09-28T05:25:45.624Z,5.30
2022-09-28T05:26:45.597Z,6.10
2022-09-28T05:27:45.590Z,5.90
2022-09-28T05:28:45.614Z,7.90
2022-09-28T05:29:45.575Z,6.90
2022-09-28T05:30:45.577Z,5.40
2022-09-28T05:31:45.601Z,6.30
2022-09-28T05:32:45.568Z,7.90
2022-09-28T05:33:45.552Z,6.60
2022-09-28T05:34:45.571Z,5.90
2022-09-28T05:35:48.738Z,4.70
2022-09-28T05:36:46.565Z,5.70
2022-09-28T05:37:45.539Z,5.40
2022-09-28T05:38:45.541Z,4.90
2022-09-28T05:39:45.524Z,5.50
2022-09-28T05:40:45.552Z,6.00
2022-09-28T05:41:45.510Z,4.50
2022-09-28T05:42:45.524Z,4.10
2022-09-28T05:43:45.500Z,6.60
2022-09-28T05:44:45.518Z,5.40
2022-09-28T05:45:45.535Z,4.20
2022-09-28T05:46:45.491Z,5.90
2022-09-28T05:47:45.474Z,6.00
2022-09-28T05:48:45.465Z,4.10
2022-09-28T05:49:45.480Z,4.40
2022-09-28T05:50:45.458Z,4.20
2022-09-28T05:51:45.442Z,4.40
2022-09-28T05:52:45.442Z,5.60
2022-09-28T05:53:45.452Z,5.00
2022-09-28T05:54:45.437Z,6.00
2022-09-28T05:55:45.441Z,6.00
2022-09-28T05:56:45.411Z,4.90
2022-09-28T05:57:45.417Z,4.40
2022-09-28T05:58:45.414Z,5.10
2022-09-28T05:59:45.401Z,6.20
2022-09-28T06:00:45.490Z,5.60
2022-09-28T06:01:45.387Z,5.00
2022-09-28T06:02:45.442Z,6.10
2022-09-28T06:03:45.366Z,6.70
2022-09-28T06:04:45.364Z,5.20
2022-09-28T06:05:45.359Z,5.50
2022-09-28T06:06:45.372Z,4.60
2022-09-28T06:07:45.340Z,5.80
2022-09-28T06:08:45.343Z,5.00
2022-09-28T06:09:45.355Z,7.60
2022-09-28T06:10:45.325Z,6.20
2022-09-28T06:11:45.365Z,6.20
2022-09-28T06:12:45.312Z,4.60
2022-09-28T06:13:45.303Z,4.80
2022-09-28T06:14:45.292Z,6.70
2022-09-28T06:15:45.310Z,5.90
2022-09-28T06:16:45.340Z,5.30
2022-09-28T06:17:45.280Z,5.30
2022-09-28T06:18:45.284Z,5.10
2022-09-28T06:19:45.263Z,6.70
2022-09-28T06:20:45.297Z,5.60
2022-09-28T06:21:45.250Z,4.60
2022-09-28T06:22:45.242Z,5.70
2022-09-28T06:23:48.983Z,4.70
2022-09-28T06:24:45.258Z,6.40
2022-09-28T06:25:45.246Z,7.90
2022-09-28T06:26:45.219Z,6.00
2022-09-28T06:27:45.210Z,5.50
2022-09-28T06:28:45.202Z,7.10
2022-09-28T06:29:45.205Z,6.10
2022-09-28T06:30:45.294Z,5.80
2022-09-28T06:31:45.180Z,6.10
2022-09-28T06:32:45.181Z,5.80
2022-09-28T06:33:45.186Z,6.10
2022-09-28T06:34:45.158Z,6.60
2022-09-28T06:35:45.157Z,6.70
2022-09-28T06:36:45.143Z,6.50
2022-09-28T06:37:45.137Z,5.50
2022-09-28T06:38:45.134Z,6.30
2022-09-28T06:39:45.146Z,6.60
2022-09-28T06:40:45.158Z,7.10
2022-09-28T06:41:45.124Z,7.50
2022-09-28T06:42:45.102Z,6.30
2022-09-28T06:43:45.131Z,8.00
2022-09-28T06:44:45.089Z,6.40
2022-09-28T06:45:45.115Z,7.00
2022-09-28T06:46:45.099Z,5.80
2022-09-28T06:47:45.068Z,8.50
2022-09-28T06:48:45.093Z,9.60
2022-09-28T06:49:45.052Z,9.10
2022-09-28T06:50:45.056Z,10.30
2022-09-28T06:51:45.070Z,9.20
2022-09-28T06:52:45.065Z,9.70
2022-09-28T06:53:45.032Z,8.90
2022-09-28T06:54:45.028Z,10.20
2022-09-28T06:55:45.016Z,7.40
2022-09-28T06:56:45.039Z,8.80
2022-09-28T06:57:45.007Z,9.00
2022-09-28T06:58:45.011Z,7.20
2022-09-28T06:59:45.001Z,8.70
2022-09-28T07:00:45.072Z,7.20
2022-09-28T07:01:45.050Z,5.90
2022-09-28T07:02:45.013Z,7.00
2022-09-28T07:03:44.968Z,6.80
2022-09-28T07:04:44.983Z,7.70
2022-09-28T07:05:44.962Z,8.60
2022-09-28T07:06:44.954Z,5.60
2022-09-28T07:07:44.936Z,6.30
2022-09-28T07:08:47.246Z,5.70
2022-09-28T07:09:49.515Z,7.90
2022-09-28T07:10:45.919Z,7.60
2022-09-28T07:11:44.909Z,7.00
2022-09-28T07:12:44.908Z,5.90
2022-09-28T07:13:52.147Z,6.20
2022-09-28T07:14:48.035Z,7.90
2022-09-28T07:15:44.889Z,5.70
2022-09-28T07:17:10.151Z,6.80
2022-09-28T07:17:58.244Z,7.30
2022-09-28T07:18:45.867Z,6.70
2022-09-28T07:19:44.851Z,7.60
2022-09-28T07:20:53.612Z,8.60
2022-09-28T07:21:47.058Z,10.50
2022-09-28T07:22:45.839Z,10.10
2022-09-28T07:23:52.925Z,10.40
2022-09-28T07:24:45.822Z,8.70
2022-09-28T07:25:44.805Z,9.50
2022-09-28T07:26:44.803Z,11.10
2022-09-28T07:27:44.803Z,13.40
2022-09-28T07:28:44.818Z,10.70
2022-09-28T07:29:44.790Z,8.70
2022-09-28T07:30:44.988Z,11.20
2022-09-28T07:31:44.767Z,8.90
2022-09-28T07:32:44.801Z,7.10
2022-09-28T07:33:44.767Z,6.60
2022-09-28T07:34:44.756Z,8.30
2022-09-28T07:35:44.743Z,6.50
2022-09-28T07:36:44.741Z,7.60
2022-09-28T07:37:44.726Z,7.40
2022-09-28T07:38:44.727Z,8.10
2022-09-28T07:39:44.706Z,7.30
2022-09-28T07:40:48.306Z,7.00
2022-09-28T07:41:44.713Z,9.10
2022-09-28T07:42:44.693Z,7.20
2022-09-28T07:43:44.682Z,6.90
2022-09-28T07:44:44.684Z,7.70
2022-09-28T07:45:44.711Z,6.80
2022-09-28T07:46:44.682Z,7.40
2022-09-28T07:47:44.661Z,7.20
2022-09-28T07:48:44.658Z,8.20
2022-09-28T07:49:44.644Z,8.70
2022-09-28T07:50:44.630Z,6.90
2022-09-28T07:51:44.654Z,8.20
2022-09-28T07:52:44.616Z,8.80
2022-09-28T07:53:44.633Z,8.50
2022-09-28T07:54:44.611Z,6.70
2022-09-28T07:55:44.600Z,7.60
2022-09-28T07:56:44.623Z,9.90
2022-09-28T07:57:44.574Z,12.80
2022-09-28T07:58:44.575Z,21.40
2022-09-28T07:59:44.565Z,20.50
2022-09-28T08:00:44.566Z,14.70
2022-09-28T08:01:44.616Z,10.30
2022-09-28T08:02:44.629Z,12.20
2022-09-28T08:03:44.542Z,15.30
2022-09-28T08:04:44.538Z,8.10
2022-09-28T08:05:44.529Z,7.30
2022-09-28T08:06:44.527Z,7.90
2022-09-28T08:07:44.539Z,9.40
2022-09-28T08:08:44.513Z,8.10
2022-09-28T08:09:44.496Z,9.40
2022-09-28T08:10:46.807Z,6.80
2022-09-28T08:11:44.486Z,8.20
2022-09-28T08:12:44.476Z,9.20
2022-09-28T08:13:44.491Z,7.20
2022-09-28T08:14:44.496Z,7.70
2022-09-28T08:15:44.529Z,6.50
2022-09-28T08:16:44.513Z,7.80
2022-09-28T08:17:44.440Z,7.00
2022-09-28T08:18:44.451Z,6.40
2022-09-28T08:19:44.430Z,4.70
2022-09-28T08:20:46.997Z,5.40
2022-09-28T08:21:44.447Z,5.50
2022-09-28T08:22:44.427Z,4.70
2022-09-28T08:23:44.397Z,5.10
2022-09-28T08:24:44.382Z,5.10
2022-09-28T08:25:44.377Z,5.70
2022-09-28T08:26:44.394Z,8.50
2022-09-28T08:27:44.363Z,5.60
2022-09-28T08:28:44.359Z,6.60
2022-09-28T08:29:44.363Z,5.80
2022-09-28T08:30:44.421Z,5.80
2022-09-28T08:31:44.352Z,5.40
2022-09-28T08:32:44.351Z,5.40
2022-09-28T08:33:44.335Z,6.90
2022-09-28T08:34:44.310Z,6.60
2022-09-28T08:35:44.294Z,6.40
2022-09-28T08:36:44.310Z,5.80
2022-09-28T08:37:48.854Z,5.40
2022-09-28T08:38:45.298Z,4.90
2022-09-28T08:39:44.270Z,5.10
2022-09-28T08:40:44.308Z,5.40
2022-09-28T08:41:44.253Z,4.80
2022-09-28T08:42:44.239Z,4.90
2022-09-28T08:43:44.228Z,6.60
2022-09-28T08:45:44.230Z,5.10
2022-09-28T08:46:44.207Z,5.20
2022-09-28T08:47:44.201Z,5.10
2022-09-28T08:48:52.274Z,5.70
2022-09-28T08:49:45.241Z,7.50
2022-09-28T08:50:44.176Z,4.60
2022-09-28T08:51:44.157Z,5.90
2022-09-28T08:52:44.153Z,6.50
2022-09-28T08:53:44.145Z,5.40
2022-09-28T08:54:44.165Z,5.30
2022-09-28T08:55:44.129Z,5.40
2022-09-28T08:56:44.152Z,5.90
2022-09-28T08:57:44.107Z,7.40
2022-09-28T08:58:44.107Z,5.70
2022-09-28T08:59:44.131Z,7.30
2022-09-28T09:00:44.091Z,6.20
2022-09-28T09:01:44.123Z,6.40
2022-09-28T09:02:44.149Z,5.50
2022-09-28T09:03:44.058Z,6.10
2022-09-28T09:04:44.070Z,5.80
2022-09-28T09:05:44.065Z,5.10
2022-09-28T09:06:44.040Z,12.60
2022-09-28T09:07:44.031Z,15.70
2022-09-28T09:08:44.026Z,12.70
2022-09-28T09:09:44.023Z,15.40
2022-09-28T09:10:44.005Z,10.60
2022-09-28T09:11:44.018Z,9.50
2022-09-28T09:12:44.090Z,7.80
2022-09-28T09:13:44.017Z,6.60
2022-09-28T09:14:43.975Z,6.20
2022-09-28T09:15:43.966Z,4.60
2022-09-28T09:16:46.942Z,6.00
2022-09-28T09:17:43.973Z,4.70
2022-09-28T09:18:43.941Z,4.90
2022-09-28T09:19:43.921Z,4.50
2022-09-28T09:20:43.930Z,5.60
2022-09-28T09:21:43.917Z,4.40
2022-09-28T09:22:43.901Z,5.40
2022-09-28T09:23:43.910Z,6.60
2022-09-28T09:24:43.889Z,4.70
2022-09-28T09:25:43.880Z,4.20
2022-09-28T09:26:43.874Z,4.80
2022-09-28T09:27:43.867Z,5.30
2022-09-28T09:28:43.872Z,5.80
2022-09-28T09:29:43.839Z,4.50
2022-09-28T09:30:43.869Z,5.40
2022-09-28T09:31:43.826Z,4.60
2022-09-28T09:32:43.808Z,5.20
2022-09-28T09:33:43.824Z,5.50
2022-09-28T09:34:43.792Z,5.60
2022-09-28T09:35:43.820Z,6.50
2022-09-28T09:36:43.784Z,6.20
2022-09-28T09:37:43.779Z,7.10
2022-09-28T09:38:43.781Z,6.20
2022-09-28T09:39:43.752Z,5.00
2022-09-28T09:40:43.875Z,5.60
2022-09-28T09:41:43.748Z,4.80
2022-09-28T09:42:43.759Z,5.10
2022-09-28T09:43:43.720Z,6.50
2022-09-28T09:44:43.734Z,7.10
2022-09-28T09:45:43.741Z,5.80
2022-09-28T09:46:43.738Z,7.20
2022-09-28T09:47:43.705Z,5.20
2022-09-28T09:48:43.685Z,6.40
2022-09-28T09:49:43.680Z,5.40
2022-09-28T09:50:43.705Z,5.80
2022-09-28T09:51:43.665Z,5.60
2022-09-28T09:52:44.417Z,6.30
2022-09-28T09:53:43.655Z,6.50
2022-09-28T09:54:43.640Z,5.40
2022-09-28T09:55:43.656Z,5.80
2022-09-28T09:56:43.646Z,6.20
2022-09-28T09:57:43.634Z,5.10
2022-09-28T09:58:43.613Z,5.00
2022-09-28T09:59:43.593Z,7.00
2022-09-28T10:00:43.599Z,7.30
2022-09-28T10:01:43.645Z,5.90
2022-09-28T10:02:43.654Z,6.10
2022-09-28T10:03:43.568Z,5.60
2022-09-28T10:04:43.559Z,5.50
2022-09-28T10:05:43.561Z,5.00
2022-09-28T10:06:43.573Z,4.80
2022-09-28T10:07:43.752Z,4.30
2022-09-28T10:08:43.539Z,5.40
2022-09-28T10:09:43.522Z,6.50
2022-09-28T10:10:43.549Z,4.90
2022-09-28T10:11:43.540Z,3.00
2022-09-28T10:12:43.501Z,2.80
2022-09-28T10:13:43.512Z,3.10
2022-09-28T10:14:43.480Z,3.40
2022-09-28T10:15:43.482Z,4.10
2022-09-28T10:16:43.518Z,5.20
2022-09-28T10:17:43.460Z,4.60
2022-09-28T10:18:43.536Z,5.30
2022-09-28T10:19:43.450Z,5.80
2022-09-28T10:20:43.477Z,4.50
2022-09-28T10:21:43.442Z,4.40
2022-09-28T10:22:43.426Z,6.10
2022-09-28T10:23:43.419Z,6.00
2022-09-28T10:24:43.416Z,4.60
2022-09-28T10:25:43.407Z,6.70
2022-09-28T10:26:43.439Z,5.10
2022-09-28T10:27:43.387Z,6.40
2022-09-28T10:28:43.381Z,5.70
2022-09-28T10:29:43.378Z,4.70
2022-09-28T10:30:43.401Z,6.20
2022-09-28T10:31:43.354Z,6.80
2022-09-28T10:32:43.380Z,6.20
2022-09-28T10:33:43.371Z,6.20
2022-09-28T10:34:46.341Z,5.70
2022-09-28T10:35:43.334Z,6.90
2022-09-28T10:36:43.326Z,8.20
2022-09-28T10:37:43.329Z,7.00
2022-09-28T10:38:43.304Z,6.20
2022-09-28T10:39:43.331Z,7.80
2022-09-28T10:40:43.332Z,7.00
2022-09-28T10:41:43.285Z,7.30
2022-09-28T10:42:43.288Z,7.00
2022-09-28T10:43:46.565Z,6.50
2022-09-28T10:44:44.283Z,7.70
2022-09-28T10:45:43.306Z,8.80
2022-09-28T10:46:43.254Z,6.70
2022-09-28T10:47:43.240Z,5.30
2022-09-28T10:48:43.263Z,6.70
2022-09-28T10:49:46.861Z,5.40
2022-09-28T10:50:43.228Z,7.10
2022-09-28T10:51:43.218Z,6.80
2022-09-28T10:52:43.209Z,7.00
2022-09-28T10:53:43.224Z,5.60
2022-09-28T10:54:43.220Z,5.70
2022-09-28T10:55:43.190Z,4.50
2022-09-28T10:56:43.192Z,4.60
2022-09-28T10:57:43.206Z,5.70
2022-09-28T10:58:43.168Z,4.70
2022-09-28T10:59:43.172Z,5.30
2022-09-28T11:00:43.161Z,4.60
2022-09-28T11:01:43.234Z,4.40
2022-09-28T11:02:43.197Z,4.30
2022-09-28T11:03:43.130Z,5.20
2022-09-28T11:04:43.120Z,4.10
2022-09-28T11:05:43.113Z,4.90
2022-09-28T11:06:43.109Z,5.70
2022-09-28T11:07:43.117Z,4.70
2022-09-28T11:08:44.336Z,4.90
2022-09-28T11:09:46.346Z,4.80
2022-09-28T11:10:43.078Z,4.10
2022-09-28T11:11:43.073Z,5.00
2022-09-28T11:12:43.069Z,5.00
2022-09-28T11:13:43.078Z,4.50
2022-09-28T11:14:43.066Z,4.70
2022-09-28T11:15:43.039Z,5.30
2022-09-28T11:16:43.133Z,5.10
2022-09-28T11:17:43.033Z,3.80
2022-09-28T11:18:43.036Z,4.30
2022-09-28T11:19:43.026Z,4.80
2022-09-28T11:20:45.429Z,4.50
2022-09-28T11:21:43.000Z,4.10
2022-09-28T11:22:42.981Z,4.20
2022-09-28T11:23:42.981Z,3.10
2022-09-28T11:24:42.990Z,4.60
2022-09-28T11:25:43.042Z,4.00
2022-09-28T11:26:42.975Z,4.10
2022-09-28T11:27:42.985Z,3.00
2022-09-28T11:28:42.939Z,4.50
2022-09-28T11:29:42.938Z,3.50
2022-09-28T11:30:43.002Z,4.80
2022-09-28T11:31:42.925Z,3.60
2022-09-28T11:32:42.915Z,6.00
2022-09-28T11:33:42.918Z,4.90
2022-09-28T11:34:58.630Z,5.50
2022-09-28T11:35:43.878Z,5.50
2022-09-28T11:36:42.875Z,4.00
2022-09-28T11:37:42.874Z,5.20
2022-09-28T11:38:42.884Z,4.50
2022-09-28T11:39:42.852Z,4.70
2022-09-28T11:40:42.871Z,4.80
2022-09-28T11:41:42.848Z,5.20
2022-09-28T11:42:42.850Z,4.60
2022-09-28T11:43:42.825Z,3.80
2022-09-28T11:44:42.826Z,4.70
2022-09-28T11:45:42.893Z,6.00
2022-09-28T11:46:42.811Z,4.50
2022-09-28T11:47:42.822Z,3.50
2022-09-28T11:48:42.792Z,4.40
2022-09-28T11:49:42.816Z,5.30
2022-09-28T11:50:42.788Z,4.00
2022-09-28T11:51:42.877Z,5.10
2022-09-28T11:52:42.757Z,4.40
2022-09-28T11:53:42.746Z,4.40
2022-09-28T11:54:42.754Z,4.90
2022-09-28T11:55:42.754Z,5.10
2022-09-28T11:56:42.734Z,6.30
2022-09-28T11:57:42.721Z,5.50
2022-09-28T11:58:42.731Z,5.60
2022-09-28T11:59:42.692Z,3.20
2022-09-28T12:00:42.691Z,4.90
2022-09-28T12:01:42.674Z,5.50
2022-09-28T12:02:42.761Z,3.40
2022-09-28T12:03:42.960Z,3.60
2022-09-28T12:04:42.687Z,5.30
2022-09-28T12:05:42.682Z,3.70
2022-09-28T12:06:42.658Z,12.90
2022-09-28T12:07:42.639Z,12.70
2022-09-28T12:08:42.658Z,4.00
2022-09-28T12:09:42.630Z,4.30
2022-09-28T12:10:45.528Z,4.40
2022-09-28T12:11:42.637Z,7.30
2022-09-28T12:12:42.612Z,4.60
2022-09-28T12:13:42.595Z,6.80
2022-09-28T12:14:42.591Z,8.00
2022-09-28T12:16:11.618Z,4.50
2022-09-28T12:17:04.996Z,2.70
2022-09-28T12:17:43.647Z,4.30
2022-09-28T12:18:42.568Z,10.60
2022-09-28T12:19:42.549Z,10.10
2022-09-28T12:20:42.542Z,4.30
2022-09-28T12:21:42.557Z,6.90
2022-09-28T12:22:42.538Z,8.90
2022-09-28T12:23:42.516Z,7.10
2022-09-28T12:24:42.515Z,5.70
2022-09-28T12:25:42.500Z,2.40
2022-09-28T12:26:42.512Z,4.00
2022-09-28T12:27:42.514Z,6.80
2022-09-28T12:28:42.484Z,4.50
2022-09-28T12:29:42.469Z,10.10
2022-09-28T12:30:42.499Z,9.70
2022-09-28T12:31:42.474Z,6.00
2022-09-28T12:32:42.472Z,8.40
2022-09-28T12:33:42.445Z,5.70
2022-09-28T12:34:42.446Z,5.80
2022-09-28T12:35:42.425Z,6.60
2022-09-28T12:36:42.432Z,5.30
2022-09-28T12:37:42.459Z,6.10
2022-09-28T12:38:42.409Z,5.20
2022-09-28T12:39:57.120Z,5.40
2022-09-28T12:40:43.477Z,6.20
2022-09-28T12:41:42.394Z,4.50
2022-09-28T12:42:42.383Z,3.40
2022-09-28T12:43:42.375Z,3.70
2022-09-28T12:44:42.369Z,4.30
2022-09-28T12:45:59.722Z,3.00
2022-09-28T12:46:43.448Z,2.60
2022-09-28T12:47:42.333Z,5.10
2022-09-28T12:48:42.335Z,4.80
2022-09-28T12:50:52.626Z,3.40
2022-09-28T12:51:43.348Z,6.30
2022-09-28T12:52:42.327Z,4.60
2022-09-28T12:53:42.293Z,6.20
2022-09-28T12:54:42.303Z,9.50
2022-09-28T12:55:42.289Z,4.30
2022-09-28T12:56:42.275Z,2.80
2022-09-28T12:57:42.306Z,3.60
2022-09-28T12:58:42.262Z,6.10
2022-09-28T12:59:42.244Z,4.60
2022-09-28T13:00:42.252Z,5.00
2022-09-28T13:01:42.273Z,3.50
2022-09-28T13:02:42.315Z,4.60
2022-09-28T13:03:42.248Z,3.80
2022-09-28T13:04:42.213Z,5.00
2022-09-28T13:05:42.213Z,8.90
2022-09-28T13:06:42.200Z,5.60
2022-09-28T13:07:42.190Z,5.30
2022-09-28T13:08:42.215Z,4.80
2022-09-28T13:09:42.179Z,5.40
2022-09-28T13:10:42.181Z,5.40
2022-09-28T13:11:42.175Z,6.20
2022-09-28T13:12:42.178Z,5.50
2022-09-28T13:13:42.170Z,5.20
2022-09-28T13:14:42.176Z,8.10
2022-09-28T13:15:42.177Z,5.70
2022-09-28T13:16:42.134Z,4.30